sensor_id;sensor_type;location;lat;lon;timestamp;pressure;altitude;pressure_sealevel;temperature;humidity
49943;BME280;36011;53.362;58.948;2024-02-14T00:02:31;96769.84;;;-11.38;57.82
49943;BME280;36011;53.362;58.948;2024-02-14T00:05:34;96772.19;;;-11.47;57.96
49943;BME280;36011;53.362;58.948;2024-02-14T00:08:40;96772.97;;;-11.49;58.15
49943;BME280;36011;53.362;58.948;2024-02-14T00:11:46;96777.63;;;-11.28;57.80
49943;BME280;36011;53.362;58.948;2024-02-14T00:14:49;96768.47;;;-11.19;57.42
49943;BME280;36011;53.362;58.948;2024-02-14T00:17:52;96765.94;;;-11.20;57.07
49943;BME280;36011;53.362;58.948;2024-02-14T00:20:56;96781.97;;;-11.23;57.18
49943;BME280;36011;53.362;58.948;2024-02-14T00:23:58;96781.03;;;-11.26;57.11
49943;BME280;36011;53.362;58.948;2024-02-14T00:26:59;96791.88;;;-11.37;56.84
49943;BME280;36011;53.362;58.948;2024-02-14T00:30:04;96794.88;;;-11.56;57.42
49943;BME280;36011;53.362;58.948;2024-02-14T00:33:22;96807.25;;;-11.71;57.55
49943;BME280;36011;53.362;58.948;2024-02-14T00:36:23;96804.56;;;-11.79;57.66
49943;BME280;36011;53.362;58.948;2024-02-14T00:39:27;96804.44;;;-11.84;57.68
49943;BME280;36011;53.362;58.948;2024-02-14T00:42:30;96814.50;;;-11.91;57.92
49943;BME280;36011;53.362;58.948;2024-02-14T00:45:31;96821.94;;;-11.99;57.91
49943;BME280;36011;53.362;58.948;2024-02-14T00:48:35;96820.84;;;-12.10;57.98
49943;BME280;36011;53.362;58.948;2024-02-14T00:51:36;96829.13;;;-12.17;58.11
49943;BME280;36011;53.362;58.948;2024-02-14T00:54:40;96824.94;;;-12.17;58.33
49943;BME280;36011;53.362;58.948;2024-02-14T00:57:41;96838.59;;;-12.10;58.53
49943;BME280;36011;53.362;58.948;2024-02-14T01:00:43;96832.56;;;-12.15;58.29
49943;BME280;36011;53.362;58.948;2024-02-14T01:03:50;96833.53;;;-12.09;57.97
49943;BME280;36011;53.362;58.948;2024-02-14T01:06:51;96838.59;;;-12.10;57.67
49943;BME280;36011;53.362;58.948;2024-02-14T01:09:55;96841.72;;;-12.21;57.47
49943;BME280;36011;53.362;58.948;2024-02-14T01:12:56;96844.91;;;-12.31;57.82
49943;BME280;36011;53.362;58.948;2024-02-14T01:16:00;96854.88;;;-12.37;57.80
49943;BME280;36011;53.362;58.948;2024-02-14T01:19:03;96854.72;;;-12.43;57.50
49943;BME280;36011;53.362;58.948;2024-02-14T01:22:07;96854.50;;;-12.52;57.57
49943;BME280;36011;53.362;58.948;2024-02-14T01:25:17;96858.09;;;-12.44;57.57
49943;BME280;36011;53.362;58.948;2024-02-14T01:28:20;96878.09;;;-12.56;57.78
49943;BME280;36011;53.362;58.948;2024-02-14T01:31:25;96880.97;;;-12.76;57.35
49943;BME280;36011;53.362;58.948;2024-02-14T01:34:26;96891.56;;;-12.91;57.68
49943;BME280;36011;53.362;58.948;2024-02-14T01:37:30;96908.94;;;-13.04;57.91
49943;BME280;36011;53.362;58.948;2024-02-14T01:40:31;96902.03;;;-13.08;58.48
49943;BME280;36011;53.362;58.948;2024-02-14T01:43:38;96902.56;;;-12.90;58.53
49943;BME280;36011;53.362;58.948;2024-02-14T01:46:44;96898.50;;;-12.83;58.27
49943;BME280;36011;53.362;58.948;2024-02-14T01:49:48;96900.34;;;-12.78;58.34
49943;BME280;36011;53.362;58.948;2024-02-14T01:52:50;96892.81;;;-12.75;57.92
49943;BME280;36011;53.362;58.948;2024-02-14T01:55:51;96905.56;;;-12.72;57.66
49943;BME280;36011;53.362;58.948;2024-02-14T01:58:52;96906.63;;;-12.63;57.67
49943;BME280;36011;53.362;58.948;2024-02-14T02:01:54;96920.25;;;-12.58;57.47
49943;BME280;36011;53.362;58.948;2024-02-14T02:04:57;96921.81;;;-12.63;57.51
49943;BME280;36011;53.362;58.948;2024-02-14T02:08:00;96923.22;;;-12.75;57.38
49943;BME280;36011;53.362;58.948;2024-02-14T02:11:02;96929.91;;;-12.77;57.55
49943;BME280;36011;53.362;58.948;2024-02-14T02:14:26;96937.44;;;-12.80;57.32
49943;BME280;36011;53.362;58.948;2024-02-14T02:17:46;96940.03;;;-12.77;57.57
49943;BME280;36011;53.362;58.948;2024-02-14T02:21:13;96938.09;;;-12.87;57.44
49943;BME280;36011;53.362;58.948;2024-02-14T02:24:20;96932.69;;;-12.99;57.51
49943;BME280;36011;53.362;58.948;2024-02-14T02:27:23;96926.69;;;-13.03;57.90
49943;BME280;36011;53.362;58.948;2024-02-14T02:30:46;96937.50;;;-13.08;58.05
49943;BME280;36011;53.362;58.948;2024-02-14T02:33:48;96944.31;;;-13.07;58.03
49943;BME280;36011;53.362;58.948;2024-02-14T02:36:50;96950.63;;;-13.22;58.05
49943;BME280;36011;53.362;58.948;2024-02-14T02:40:10;96941.94;;;-13.33;57.92
49943;BME280;36011;53.362;58.948;2024-02-14T02:43:35;96968.22;;;-13.28;57.89
49943;BME280;36011;53.362;58.948;2024-02-14T02:46:57;96979.16;;;-13.29;58.47
49943;BME280;36011;53.362;58.948;2024-02-14T02:50:20;96975.00;;;-13.27;58.21
49943;BME280;36011;53.362;58.948;2024-02-14T02:53:44;96972.31;;;-13.33;58.10
49943;BME280;36011;53.362;58.948;2024-02-14T02:57:08;96987.28;;;-13.39;58.36
49943;BME280;36011;53.362;58.948;2024-02-14T03:00:09;96981.25;;;-13.44;58.43
49943;BME280;36011;53.362;58.948;2024-02-14T03:03:23;96998.75;;;-13.50;57.94
49943;BME280;36011;53.362;58.948;2024-02-14T03:06:43;97000.19;;;-13.59;58.20
49943;BME280;36011;53.362;58.948;2024-02-14T03:10:00;97013.47;;;-13.66;58.05
49943;BME280;36011;53.362;58.948;2024-02-14T03:13:24;97011.28;;;-13.82;57.98
49943;BME280;36011;53.362;58.948;2024-02-14T03:16:47;97005.19;;;-13.87;58.85
49943;BME280;36011;53.362;58.948;2024-02-14T03:19:52;97016.03;;;-13.91;58.86
49943;BME280;36011;53.362;58.948;2024-02-14T03:22:53;97023.72;;;-13.88;58.46
49943;BME280;36011;53.362;58.948;2024-02-14T03:25:54;97022.91;;;-13.87;58.69
49943;BME280;36011;53.362;58.948;2024-02-14T03:28:56;97033.56;;;-13.97;58.52
49943;BME280;36011;53.362;58.948;2024-02-14T03:31:58;97053.44;;;-14.08;58.48
49943;BME280;36011;53.362;58.948;2024-02-14T03:35:05;97060.59;;;-14.20;58.85
49943;BME280;36011;53.362;58.948;2024-02-14T03:38:08;97053.41;;;-14.34;58.41
49943;BME280;36011;53.362;58.948;2024-02-14T03:41:09;97054.06;;;-14.39;58.90
49943;BME280;36011;53.362;58.948;2024-02-14T03:44:13;97057.34;;;-14.42;58.82
49943;BME280;36011;53.362;58.948;2024-02-14T03:47:14;97070.78;;;-14.43;59.33
49943;BME280;36011;53.362;58.948;2024-02-14T03:50:15;97076.59;;;-14.45;59.24
49943;BME280;36011;53.362;58.948;2024-02-14T03:53:17;97073.97;;;-14.49;59.25
49943;BME280;36011;53.362;58.948;2024-02-14T03:56:21;97073.97;;;-14.49;59.26
49943;BME280;36011;53.362;58.948;2024-02-14T03:59:25;97081.63;;;-14.45;59.59
49943;BME280;36011;53.362;58.948;2024-02-14T04:02:26;97086.91;;;-14.39;59.16
49943;BME280;36011;53.362;58.948;2024-02-14T04:05:29;97100.78;;;-14.28;59.04
49943;BME280;36011;53.362;58.948;2024-02-14T04:08:30;97107.75;;;-14.21;59.50
49943;BME280;36011;53.362;58.948;2024-02-14T04:11:33;97103.63;;;-14.19;59.22
49943;BME280;36011;53.362;58.948;2024-02-14T04:14:34;97107.16;;;-14.14;59.31
49943;BME280;36011;53.362;58.948;2024-02-14T04:17:41;97111.63;;;-14.07;59.21
49943;BME280;36011;53.362;58.948;2024-02-14T04:20:42;97120.13;;;-14.05;59.00
49943;BME280;36011;53.362;58.948;2024-02-14T04:23:44;97114.50;;;-13.96;58.91
49943;BME280;36011;53.362;58.948;2024-02-14T04:26:45;97119.03;;;-13.87;59.00
49943;BME280;36011;53.362;58.948;2024-02-14T04:29:48;97122.63;;;-13.81;58.54
49943;BME280;36011;53.362;58.948;2024-02-14T04:32:52;97123.84;;;-13.69;58.50
49943;BME280;36011;53.362;58.948;2024-02-14T04:35:55;97123.50;;;-13.54;58.49
49943;BME280;36011;53.362;58.948;2024-02-14T04:38:57;97125.53;;;-13.44;58.14
49943;BME280;36011;53.362;58.948;2024-02-14T04:41:58;97149.50;;;-13.33;58.27
49943;BME280;36011;53.362;58.948;2024-02-14T04:44:59;97155.72;;;-13.22;58.36
49943;BME280;36011;53.362;58.948;2024-02-14T04:48:03;97166.94;;;-13.14;57.90
49943;BME280;36011;53.362;58.948;2024-02-14T04:51:07;97162.97;;;-13.05;58.09
49943;BME280;36011;53.362;58.948;2024-02-14T04:54:10;97159.88;;;-12.97;57.32
49943;BME280;36011;53.362;58.948;2024-02-14T04:57:13;97174.59;;;-12.85;57.69
49943;BME280;36011;53.362;58.948;2024-02-14T05:00:16;97174.91;;;-12.76;57.73
49943;BME280;36011;53.362;58.948;2024-02-14T05:03:19;97177.09;;;-12.59;57.55
49943;BME280;36011;53.362;58.948;2024-02-14T05:06:20;97183.31;;;-12.48;57.48
49943;BME280;36011;53.362;58.948;2024-02-14T05:09:21;97187.84;;;-12.38;57.42
49943;BME280;36011;53.362;58.948;2024-02-14T05:12:27;97188.50;;;-12.15;56.59
49943;BME280;36011;53.362;58.948;2024-02-14T05:15:32;97194.81;;;-12.01;56.15
49943;BME280;36011;53.362;58.948;2024-02-14T05:18:38;97194.88;;;-11.99;55.66
49943;BME280;36011;53.362;58.948;2024-02-14T05:21:41;97197.66;;;-11.90;55.48
49943;BME280;36011;53.362;58.948;2024-02-14T05:24:46;97191.72;;;-11.90;55.38
49943;BME280;36011;53.362;58.948;2024-02-14T05:27:53;97187.72;;;-11.81;54.86
49943;BME280;36011;53.362;58.948;2024-02-14T05:30:56;97189.84;;;-11.64;54.21
49943;BME280;36011;53.362;58.948;2024-02-14T05:34:07;97204.84;;;-11.73;53.99
49943;BME280;36011;53.362;58.948;2024-02-14T05:37:10;97205.00;;;-11.67;54.61
49943;BME280;36011;53.362;58.948;2024-02-14T05:40:11;97206.75;;;-9.83;55.32
49943;BME280;36011;53.362;58.948;2024-02-14T05:43:14;97212.66;;;-3.62;48.97
49943;BME280;36011;53.362;58.948;2024-02-14T05:46:16;97211.47;;;1.98;40.20
49943;BME280;36011;53.362;58.948;2024-02-14T05:49:20;97226.31;;;5.92;36.40
49943;BME280;36011;53.362;58.948;2024-02-14T05:52:27;97231.22;;;9.32;30.79
49943;BME280;36011;53.362;58.948;2024-02-14T05:55:32;97236.19;;;11.48;30.66
49943;BME280;36011;53.362;58.948;2024-02-14T05:58:39;97246.44;;;13.39;30.44
49943;BME280;36011;53.362;58.948;2024-02-14T06:01:43;97249.13;;;14.72;28.30
49943;BME280;36011;53.362;58.948;2024-02-14T06:04:44;97246.84;;;15.70;27.92
49943;BME280;36011;53.362;58.948;2024-02-14T06:07:45;97255.28;;;16.63;26.56
49943;BME280;36011;53.362;58.948;2024-02-14T06:10:49;97261.00;;;17.72;25.31
49943;BME280;36011;53.362;58.948;2024-02-14T06:13:50;97265.13;;;18.85;20.02
49943;BME280;36011;53.362;58.948;2024-02-14T06:16:54;97267.28;;;19.48;19.92
49943;BME280;36011;53.362;58.948;2024-02-14T06:19:55;97275.66;;;20.00;24.50
49943;BME280;36011;53.362;58.948;2024-02-14T06:22:56;97278.22;;;20.37;22.32
49943;BME280;36011;53.362;58.948;2024-02-14T06:26:01;97275.66;;;20.99;16.08
49943;BME280;36011;53.362;58.948;2024-02-14T06:29:05;97286.81;;;21.91;18.31
49943;BME280;36011;53.362;58.948;2024-02-14T06:32:09;97282.97;;;23.03;14.49
49943;BME280;36011;53.362;58.948;2024-02-14T06:35:12;97280.84;;;23.87;16.34
49943;BME280;36011;53.362;58.948;2024-02-14T06:38:17;97280.75;;;24.42;15.90
49943;BME280;36011;53.362;58.948;2024-02-14T06:41:22;97276.50;;;24.79;12.46
49943;BME280;36011;53.362;58.948;2024-02-14T06:44:28;97275.09;;;24.69;16.58
49943;BME280;36011;53.362;58.948;2024-02-14T06:47:29;97286.84;;;24.68;15.47
49943;BME280;36011;53.362;58.948;2024-02-14T06:50:30;97291.25;;;24.92;19.07
49943;BME280;36011;53.362;58.948;2024-02-14T06:53:35;97295.81;;;25.14;19.77
49943;BME280;36011;53.362;58.948;2024-02-14T06:56:36;97290.56;;;25.88;18.77
49943;BME280;36011;53.362;58.948;2024-02-14T06:59:40;97295.31;;;26.16;14.67
49943;BME280;36011;53.362;58.948;2024-02-14T07:02:41;97296.47;;;26.43;14.98
49943;BME280;36011;53.362;58.948;2024-02-14T07:05:43;97307.75;;;27.26;15.63
49943;BME280;36011;53.362;58.948;2024-02-14T07:08:47;97310.84;;;27.72;16.25
49943;BME280;36011;53.362;58.948;2024-02-14T07:11:55;97322.97;;;28.46;14.03
49943;BME280;36011;53.362;58.948;2024-02-14T07:15:03;97324.97;;;28.85;15.23
49943;BME280;36011;53.362;58.948;2024-02-14T07:18:09;97328.00;;;29.37;13.84
49943;BME280;36011;53.362;58.948;2024-02-14T07:21:12;97322.50;;;28.97;13.20
49943;BME280;36011;53.362;58.948;2024-02-14T07:24:14;97325.75;;;28.66;15.04
49943;BME280;36011;53.362;58.948;2024-02-14T07:27:17;97336.31;;;29.16;14.89
49943;BME280;36011;53.362;58.948;2024-02-14T07:30:22;97337.00;;;29.77;9.66
49943;BME280;36011;53.362;58.948;2024-02-14T07:33:24;97330.75;;;29.77;11.92
49943;BME280;36011;53.362;58.948;2024-02-14T07:36:27;97323.81;;;30.08;9.87
49943;BME280;36011;53.362;58.948;2024-02-14T07:39:33;97326.53;;;29.94;14.54
49943;BME280;36011;53.362;58.948;2024-02-14T07:42:43;97327.56;;;29.27;12.21
49943;BME280;36011;53.362;58.948;2024-02-14T07:45:48;97331.53;;;29.11;11.48
49943;BME280;36011;53.362;58.948;2024-02-14T07:48:52;97326.13;;;29.18;8.96
49943;BME280;36011;53.362;58.948;2024-02-14T07:51:54;97330.72;;;29.57;13.39
49943;BME280;36011;53.362;58.948;2024-02-14T07:54:55;97333.03;;;29.53;13.56
49943;BME280;36011;53.362;58.948;2024-02-14T07:57:59;97330.91;;;29.29;10.18
49943;BME280;36011;53.362;58.948;2024-02-14T08:01:01;97330.50;;;29.32;9.32
49943;BME280;36011;53.362;58.948;2024-02-14T08:04:04;97333.88;;;29.74;9.14
49943;BME280;36011;53.362;58.948;2024-02-14T08:07:05;97342.59;;;30.16;9.99
49943;BME280;36011;53.362;58.948;2024-02-14T08:10:10;97345.28;;;30.87;9.94
49943;BME280;36011;53.362;58.948;2024-02-14T08:13:13;97334.84;;;30.84;9.36
49943;BME280;36011;53.362;58.948;2024-02-14T08:16:19;97347.16;;;30.35;11.46
49943;BME280;36011;53.362;58.948;2024-02-14T08:19:20;97351.75;;;30.35;9.63
49943;BME280;36011;53.362;58.948;2024-02-14T08:22:31;97351.13;;;30.33;10.73
49943;BME280;36011;53.362;58.948;2024-02-14T08:25:35;97353.38;;;30.49;9.99
49943;BME280;36011;53.362;58.948;2024-02-14T08:28:38;97359.28;;;30.13;8.83
49943;BME280;36011;53.362;58.948;2024-02-14T08:31:44;97360.19;;;29.67;9.42
49943;BME280;36011;53.362;58.948;2024-02-14T08:34:50;97354.50;;;30.02;9.50
49943;BME280;36011;53.362;58.948;2024-02-14T08:37:54;97346.75;;;30.12;9.33
49943;BME280;36011;53.362;58.948;2024-02-14T08:40:55;97355.09;;;30.30;8.34
49943;BME280;36011;53.362;58.948;2024-02-14T08:43:58;97344.63;;;30.40;8.29
49943;BME280;36011;53.362;58.948;2024-02-14T08:47:02;97356.53;;;30.46;8.88
49943;BME280;36011;53.362;58.948;2024-02-14T08:50:04;97354.06;;;30.90;7.34
49943;BME280;36011;53.362;58.948;2024-02-14T08:53:05;97353.75;;;30.66;9.63
49943;BME280;36011;53.362;58.948;2024-02-14T08:56:07;97363.25;;;30.17;9.95
49943;BME280;36011;53.362;58.948;2024-02-14T08:59:08;97366.44;;;29.74;8.16
49943;BME280;36011;53.362;58.948;2024-02-14T09:02:11;97365.56;;;29.53;9.36
49943;BME280;36011;53.362;58.948;2024-02-14T09:05:13;97365.38;;;28.74;9.78
49943;BME280;36011;53.362;58.948;2024-02-14T09:08:14;97361.28;;;28.43;9.37
49943;BME280;36011;53.362;58.948;2024-02-14T09:11:15;97368.13;;;27.83;9.84
49943;BME280;36011;53.362;58.948;2024-02-14T09:14:16;97366.84;;;27.57;10.38
49943;BME280;36011;53.362;58.948;2024-02-14T09:17:17;97368.63;;;27.43;8.12
49943;BME280;36011;53.362;58.948;2024-02-14T09:20:18;97369.84;;;27.41;7.87
49943;BME280;36011;53.362;58.948;2024-02-14T09:23:23;97373.69;;;26.74;8.30
49943;BME280;36011;53.362;58.948;2024-02-14T09:26:26;97361.66;;;26.76;8.71
49943;BME280;36011;53.362;58.948;2024-02-14T09:29:28;97360.84;;;26.76;8.19
49943;BME280;36011;53.362;58.948;2024-02-14T09:32:33;97366.53;;;26.07;8.30
49943;BME280;36011;53.362;58.948;2024-02-14T09:35:34;97375.63;;;25.30;8.70
49943;BME280;36011;53.362;58.948;2024-02-14T09:38:38;97378.72;;;25.65;8.84
49943;BME280;36011;53.362;58.948;2024-02-14T09:41:42;97381.56;;;25.86;9.46
49943;BME280;36011;53.362;58.948;2024-02-14T09:44:44;97373.88;;;25.98;9.06
49943;BME280;36011;53.362;58.948;2024-02-14T09:47:49;97378.25;;;26.14;8.97
49943;BME280;36011;53.362;58.948;2024-02-14T09:50:52;97366.63;;;26.28;9.12
49943;BME280;36011;53.362;58.948;2024-02-14T09:53:54;97369.75;;;25.49;7.50
49943;BME280;36011;53.362;58.948;2024-02-14T09:56:55;97372.66;;;24.62;9.58
49943;BME280;36011;53.362;58.948;2024-02-14T10:00:01;97375.25;;;23.43;7.79
49943;BME280;36011;53.362;58.948;2024-02-14T10:03:08;97379.44;;;23.29;9.69
49943;BME280;36011;53.362;58.948;2024-02-14T10:06:10;97374.19;;;24.09;9.83
49943;BME280;36011;53.362;58.948;2024-02-14T10:09:18;97368.72;;;24.34;8.93
49943;BME280;36011;53.362;58.948;2024-02-14T10:12:22;97367.59;;;24.20;9.26
49943;BME280;36011;53.362;58.948;2024-02-14T10:15:23;97369.97;;;24.15;8.62
49943;BME280;36011;53.362;58.948;2024-02-14T10:18:27;97378.22;;;23.97;8.08
49943;BME280;36011;53.362;58.948;2024-02-14T10:21:29;97370.72;;;23.84;8.34
49943;BME280;36011;53.362;58.948;2024-02-14T10:24:37;97370.22;;;23.56;9.42
49943;BME280;36011;53.362;58.948;2024-02-14T10:27:41;97368.88;;;23.19;9.06
49943;BME280;36011;53.362;58.948;2024-02-14T10:30:47;97367.13;;;22.94;9.22
49943;BME280;36011;53.362;58.948;2024-02-14T10:33:52;97370.22;;;22.22;9.55
49943;BME280;36011;53.362;58.948;2024-02-14T10:36:56;97371.19;;;21.61;10.39
49943;BME280;36011;53.362;58.948;2024-02-14T10:39:57;97381.75;;;21.08;9.91
49943;BME280;36011;53.362;58.948;2024-02-14T10:43:04;97374.13;;;20.50;10.07
49943;BME280;36011;53.362;58.948;2024-02-14T10:46:08;97379.84;;;20.28;9.33
49943;BME280;36011;53.362;58.948;2024-02-14T10:49:12;97383.38;;;20.28;10.24
49943;BME280;36011;53.362;58.948;2024-02-14T10:52:15;97385.09;;;20.19;10.54
49943;BME280;36011;53.362;58.948;2024-02-14T10:55:17;97387.91;;;20.18;10.80
49943;BME280;36011;53.362;58.948;2024-02-14T10:58:19;97381.41;;;20.21;10.31
49943;BME280;36011;53.362;58.948;2024-02-14T11:01:26;97383.16;;;20.12;10.90
49943;BME280;36011;53.362;58.948;2024-02-14T11:04:31;97380.75;;;19.52;10.98
49943;BME280;36011;53.362;58.948;2024-02-14T11:07:33;97378.09;;;18.74;11.90
49943;BME280;36011;53.362;58.948;2024-02-14T11:10:37;97383.31;;;18.05;11.99
49943;BME280;36011;53.362;58.948;2024-02-14T11:13:44;97389.06;;;17.37;11.95
49943;BME280;36011;53.362;58.948;2024-02-14T11:16:45;97392.69;;;16.72;12.56
49943;BME280;36011;53.362;58.948;2024-02-14T11:19:46;97398.22;;;16.36;12.17
49943;BME280;36011;53.362;58.948;2024-02-14T11:22:54;97389.03;;;15.96;12.81
49943;BME280;36011;53.362;58.948;2024-02-14T11:25:59;97397.00;;;15.38;12.98
49943;BME280;36011;53.362;58.948;2024-02-14T11:29:03;97404.22;;;14.76;13.28
49943;BME280;36011;53.362;58.948;2024-02-14T11:32:12;97404.63;;;13.71;13.66
49943;BME280;36011;53.362;58.948;2024-02-14T11:35:19;97398.06;;;12.44;14.01
49943;BME280;36011;53.362;58.948;2024-02-14T11:38:23;97395.66;;;11.84;14.44
49943;BME280;36011;53.362;58.948;2024-02-14T11:41:27;97408.03;;;11.39;13.69
49943;BME280;36011;53.362;58.948;2024-02-14T11:44:32;97407.22;;;11.08;14.70
49943;BME280;36011;53.362;58.948;2024-02-14T11:47:33;97408.53;;;10.85;14.70
49943;BME280;36011;53.362;58.948;2024-02-14T11:50:41;97403.34;;;9.88;15.02
49943;BME280;36011;53.362;58.948;2024-02-14T11:53:48;97412.59;;;9.12;15.48
49943;BME280;36011;53.362;58.948;2024-02-14T11:56:49;97416.03;;;8.41;15.54
49943;BME280;36011;53.362;58.948;2024-02-14T11:59:55;97415.22;;;7.43;16.04
49943;BME280;36011;53.362;58.948;2024-02-14T12:02:58;97416.97;;;6.59;16.48
49943;BME280;36011;53.362;58.948;2024-02-14T12:06:01;97425.38;;;5.76;16.92
49943;BME280;36011;53.362;58.948;2024-02-14T12:09:04;97432.28;;;4.50;17.73
49943;BME280;36011;53.362;58.948;2024-02-14T12:12:22;97437.97;;;3.77;17.86
49943;BME280;36011;53.362;58.948;2024-02-14T12:15:23;97447.53;;;3.46;17.88
49943;BME280;36011;53.362;58.948;2024-02-14T12:18:24;97444.31;;;3.36;17.88
49943;BME280;36011;53.362;58.948;2024-02-14T12:21:30;97454.81;;;3.00;18.15
49943;BME280;36011;53.362;58.948;2024-02-14T12:24:33;97461.94;;;1.78;18.54
49943;BME280;36011;53.362;58.948;2024-02-14T12:27:35;97466.69;;;-0.02;20.17
49943;BME280;36011;53.362;58.948;2024-02-14T12:30:48;97469.09;;;-1.47;21.41
49943;BME280;36011;53.362;58.948;2024-02-14T12:33:59;97486.88;;;-2.59;22.01
49943;BME280;36011;53.362;58.948;2024-02-14T12:37:02;97487.03;;;-3.39;22.54
49943;BME280;36011;53.362;58.948;2024-02-14T12:40:06;97484.31;;;-4.14;22.68
49943;BME280;36011;53.362;58.948;2024-02-14T12:43:08;97493.47;;;-4.84;23.58
49943;BME280;36011;53.362;58.948;2024-02-14T12:46:11;97496.50;;;-5.38;23.32
49943;BME280;36011;53.362;58.948;2024-02-14T12:49:17;97504.63;;;-5.89;23.44
49943;BME280;36011;53.362;58.948;2024-02-14T12:52:18;97511.06;;;-6.27;23.94
49943;BME280;36011;53.362;58.948;2024-02-14T12:55:19;97515.78;;;-6.60;24.34
49943;BME280;36011;53.362;58.948;2024-02-14T12:58:20;97521.41;;;-6.85;24.56
49943;BME280;36011;53.362;58.948;2024-02-14T13:01:22;97522.88;;;-7.04;24.44
49943;BME280;36011;53.362;58.948;2024-02-14T13:04:26;97533.47;;;-7.36;24.84
49943;BME280;36011;53.362;58.948;2024-02-14T13:07:30;97532.03;;;-7.72;24.71
49943;BME280;36011;53.362;58.948;2024-02-14T13:10:31;97533.97;;;-8.05;25.26
49943;BME280;36011;53.362;58.948;2024-02-14T13:13:35;97540.28;;;-8.32;25.53
49943;BME280;36011;53.362;58.948;2024-02-14T13:16:37;97539.81;;;-8.56;25.98
49943;BME280;36011;53.362;58.948;2024-02-14T13:19:49;97546.13;;;-8.80;26.04
49943;BME280;36011;53.362;58.948;2024-02-14T13:22:53;97552.31;;;-9.07;26.21
49943;BME280;36011;53.362;58.948;2024-02-14T13:25:54;97556.94;;;-9.28;26.01
49943;BME280;36011;53.362;58.948;2024-02-14T13:28:57;97560.84;;;-9.42;26.09
49943;BME280;36011;53.362;58.948;2024-02-14T13:32:01;97566.47;;;-9.56;26.55
49943;BME280;36011;53.362;58.948;2024-02-14T13:35:03;97572.91;;;-9.68;27.06
49943;BME280;36011;53.362;58.948;2024-02-14T13:38:08;97589.66;;;-9.78;26.67
49943;BME280;36011;53.362;58.948;2024-02-14T13:41:13;97580.88;;;-9.89;26.83
49943;BME280;36011;53.362;58.948;2024-02-14T13:44:19;97589.84;;;-10.02;27.36
49943;BME280;36011;53.362;58.948;2024-02-14T13:47:20;97590.38;;;-10.14;27.27
49943;BME280;36011;53.362;58.948;2024-02-14T13:50:22;97598.69;;;-10.21;27.59
49943;BME280;36011;53.362;58.948;2024-02-14T13:53:23;97608.63;;;-10.30;27.74
49943;BME280;36011;53.362;58.948;2024-02-14T13:56:24;97612.53;;;-10.42;27.58
49943;BME280;36011;53.362;58.948;2024-02-14T13:59:26;97611.41;;;-10.53;27.59
49943;BME280;36011;53.362;58.948;2024-02-14T14:02:27;97626.34;;;-10.62;28.18
49943;BME280;36011;53.362;58.948;2024-02-14T14:05:28;97634.53;;;-10.72;28.12
49943;BME280;36011;53.362;58.948;2024-02-14T14:08:33;97627.44;;;-10.82;28.08
49943;BME280;36011;53.362;58.948;2024-02-14T14:11:35;97632.25;;;-10.92;28.58
49943;BME280;36011;53.362;58.948;2024-02-14T14:14:36;97635.47;;;-10.97;28.65
49943;BME280;36011;53.362;58.948;2024-02-14T14:17:37;97641.22;;;-11.03;28.50
49943;BME280;36011;53.362;58.948;2024-02-14T14:20:38;97634.28;;;-11.07;28.84
49943;BME280;36011;53.362;58.948;2024-02-14T14:23:42;97645.19;;;-11.11;28.78
49943;BME280;36011;53.362;58.948;2024-02-14T14:26:49;97644.81;;;-11.23;29.48
49943;BME280;36011;53.362;58.948;2024-02-14T14:29:54;97651.41;;;-11.28;29.44
49943;BME280;36011;53.362;58.948;2024-02-14T14:32:55;97651.13;;;-11.38;29.92
49943;BME280;36011;53.362;58.948;2024-02-14T14:35:59;97664.41;;;-11.45;29.49
49943;BME280;36011;53.362;58.948;2024-02-14T14:39:00;97665.81;;;-11.53;29.71
49943;BME280;36011;53.362;58.948;2024-02-14T14:42:01;97664.88;;;-11.57;30.49
49943;BME280;36011;53.362;58.948;2024-02-14T14:45:04;97672.50;;;-11.55;30.03
49943;BME280;36011;53.362;58.948;2024-02-14T14:48:06;97670.03;;;-11.54;31.00
49943;BME280;36011;53.362;58.948;2024-02-14T14:51:08;97666.47;;;-11.59;30.57
49943;BME280;36011;53.362;58.948;2024-02-14T14:54:10;97690.59;;;-11.71;32.09
49943;BME280;36011;53.362;58.948;2024-02-14T14:57:14;97686.09;;;-11.79;35.23
49943;BME280;36011;53.362;58.948;2024-02-14T15:00:18;97685.91;;;-11.83;31.79
49943;BME280;36011;53.362;58.948;2024-02-14T15:03:19;97687.97;;;-11.99;30.87
49943;BME280;36011;53.362;58.948;2024-02-14T15:06:21;97699.94;;;-12.18;31.38
49943;BME280;36011;53.362;58.948;2024-02-14T15:09:26;97697.41;;;-12.41;32.36
49943;BME280;36011;53.362;58.948;2024-02-14T15:12:30;97711.34;;;-12.52;34.45
49943;BME280;36011;53.362;58.948;2024-02-14T15:15:33;97717.78;;;-12.60;34.15
49943;BME280;36011;53.362;58.948;2024-02-14T15:18:38;97711.31;;;-12.75;33.20
49943;BME280;36011;53.362;58.948;2024-02-14T15:21:43;97713.59;;;-12.81;33.47
49943;BME280;36011;53.362;58.948;2024-02-14T15:24:44;97723.31;;;-12.92;32.45
49943;BME280;36011;53.362;58.948;2024-02-14T15:27:48;97727.06;;;-13.03;32.72
49943;BME280;36011;53.362;58.948;2024-02-14T15:30:58;97722.38;;;-13.15;33.77
49943;BME280;36011;53.362;58.948;2024-02-14T15:34:18;97727.94;;;-13.23;32.51
49943;BME280;36011;53.362;58.948;2024-02-14T15:37:18;97731.66;;;-13.36;32.78
49943;BME280;36011;53.362;58.948;2024-02-14T15:40:22;97743.00;;;-13.47;32.26
49943;BME280;36011;53.362;58.948;2024-02-14T15:43:23;97731.53;;;-13.59;32.35
49943;BME280;36011;53.362;58.948;2024-02-14T15:46:28;97733.63;;;-13.69;33.78
49943;BME280;36011;53.362;58.948;2024-02-14T15:49:32;97754.66;;;-13.70;34.07
49943;BME280;36011;53.362;58.948;2024-02-14T15:52:36;97749.41;;;-13.75;35.82
49943;BME280;36011;53.362;58.948;2024-02-14T15:55:40;97757.78;;;-13.76;33.92
49943;BME280;36011;53.362;58.948;2024-02-14T15:58:42;97754.06;;;-13.84;33.59
49943;BME280;36011;53.362;58.948;2024-02-14T16:01:46;97764.44;;;-13.97;32.68